createdAt,value
2022-07-29T13:10:32.621Z,25.70
2022-07-29T13:13:19.560Z,25.90
2022-07-29T13:16:09.008Z,26.40
2022-07-29T13:19:09.335Z,25.00
2022-07-29T13:21:57.352Z,25.70
2022-07-29T13:24:47.647Z,26.00
2022-07-29T13:27:35.335Z,24.50
2022-07-29T13:30:22.903Z,25.00
2022-07-29T13:33:08.380Z,25.60
2022-07-29T13:35:53.838Z,26.70
2022-07-29T13:38:39.559Z,27.30
2022-07-29T13:42:20.164Z,26.80
2022-07-29T13:44:47.586Z,28.00
2022-07-29T13:49:13.689Z,26.80
2022-07-29T13:51:41.088Z,26.00
2022-07-29T13:54:07.939Z,24.80
2022-07-29T13:56:34.778Z,25.70
2022-07-29T13:59:02.746Z,25.70
2022-07-29T14:01:29.549Z,26.10
2022-07-29T14:03:56.360Z,26.30
2022-07-29T14:06:25.127Z,25.00
2022-07-29T14:08:52.287Z,25.20
2022-07-29T14:11:19.205Z,25.00
2022-07-29T14:13:46.660Z,24.10
2022-07-29T14:16:14.708Z,24.00
2022-07-29T14:18:41.526Z,23.60
2022-07-29T14:21:09.282Z,23.60
2022-07-29T14:23:37.982Z,23.90
2022-07-29T14:26:10.797Z,23.30
2022-07-29T14:28:42.832Z,23.40
2022-07-29T14:31:10.315Z,23.20
2022-07-29T14:33:37.086Z,23.20
2022-07-29T14:36:04.423Z,23.30
2022-07-29T14:38:31.898Z,23.30
2022-07-29T14:41:00.070Z,23.50
2022-07-29T14:43:27.085Z,23.80
2022-07-29T14:45:58.776Z,23.40
2022-07-29T14:48:29.254Z,23.40
2022-07-29T14:50:56.631Z,23.40
2022-07-29T14:53:23.506Z,23.40
2022-07-29T14:55:50.498Z,23.00
2022-07-29T14:58:19.219Z,23.40
2022-07-29T15:00:46.075Z,23.30
2022-07-29T15:03:12.897Z,23.70
2022-07-29T15:05:50.393Z,24.90
2022-07-29T15:08:17.170Z,25.20
2022-07-29T15:10:43.943Z,24.80
2022-07-29T15:13:11.436Z,24.50
2022-07-29T15:15:39.705Z,24.90
2022-07-29T15:18:06.471Z,24.90
2022-07-29T15:20:33.888Z,24.90
2022-07-29T15:23:00.775Z,25.70
2022-07-29T15:25:28.344Z,25.50
2022-07-29T15:28:00.998Z,25.40
2022-07-29T15:30:32.958Z,26.00
2022-07-29T15:33:03.505Z,26.80
2022-07-29T15:35:30.301Z,25.60
2022-07-29T15:37:57.126Z,25.20
2022-07-29T15:40:24.523Z,25.20
2022-07-29T15:42:51.840Z,25.30
2022-07-29T15:45:18.602Z,25.30
2022-07-29T15:47:45.989Z,25.60
2022-07-29T15:50:14.151Z,25.60
2022-07-29T15:52:41.192Z,26.20
2022-07-29T15:55:09.427Z,26.10
2022-07-29T15:57:36.190Z,25.60
2022-07-29T16:00:04.014Z,25.80
2022-07-29T16:02:31.239Z,25.10
2022-07-29T16:04:58.039Z,25.20
2022-07-29T16:07:31.468Z,24.60
2022-07-29T16:10:00.027Z,23.80
2022-07-29T16:12:26.950Z,23.50
2022-07-29T16:14:53.757Z,23.50
2022-07-29T16:17:21.618Z,24.20
2022-07-29T16:19:48.560Z,24.60
2022-07-29T16:22:15.409Z,25.10
2022-07-29T16:24:44.147Z,24.70
2022-07-29T16:27:10.948Z,25.20
2022-07-29T16:29:37.747Z,24.90
2022-07-29T16:32:05.941Z,24.90
2022-07-29T16:34:32.859Z,24.50
2022-07-29T16:36:59.953Z,23.90
2022-07-29T16:39:27.546Z,23.30
2022-07-29T16:41:59.850Z,24.10
2022-07-29T16:44:28.399Z,23.60
2022-07-29T16:46:56.280Z,23.90
2022-07-29T16:49:26.488Z,23.90
2022-07-29T16:51:53.942Z,23.70
2022-07-29T16:54:20.734Z,23.70
2022-07-29T16:56:47.489Z,23.50
2022-07-29T16:59:16.240Z,23.90
2022-07-29T17:01:43.080Z,23.60
2022-07-29T17:04:09.876Z,23.50
2022-07-29T17:06:39.423Z,23.50
2022-07-29T17:09:08.479Z,23.60
2022-07-29T17:11:51.806Z,23.60
2022-07-29T17:14:24.383Z,23.40
2022-07-29T17:17:02.399Z,23.20
2022-07-29T17:19:31.995Z,23.30
2022-07-29T17:22:08.909Z,22.90
2022-07-29T17:24:38.121Z,23.00
2022-07-29T17:27:05.633Z,22.70
2022-07-29T17:29:33.768Z,22.30
2022-07-29T17:32:01.157Z,22.30
2022-07-29T17:34:28.001Z,22.20
2022-07-29T17:36:54.764Z,22.30
2022-07-29T17:39:22.230Z,22.10
2022-07-29T17:41:49.007Z,22.00
2022-07-29T17:44:15.794Z,22.00
2022-07-29T17:46:44.909Z,21.90
2022-07-29T17:49:11.667Z,22.00
2022-07-29T17:51:38.587Z,22.30
2022-07-29T17:54:06.116Z,22.20
2022-07-29T17:56:33.002Z,21.80
2022-07-29T17:58:59.862Z,21.80
2022-07-29T18:01:27.314Z,21.50
2022-07-29T18:03:59.803Z,21.50
2022-07-29T18:06:27.510Z,21.40
2022-07-29T18:08:54.481Z,21.10
2022-07-29T18:11:21.376Z,20.90
2022-07-29T18:13:48.800Z,20.80
2022-07-29T18:16:15.783Z,20.70
2022-07-29T18:18:44.093Z,20.80
2022-07-29T18:21:13.165Z,20.70
2022-07-29T18:23:39.977Z,20.60
2022-07-29T18:26:06.818Z,20.50
2022-07-29T18:28:34.318Z,20.40
2022-07-29T18:31:01.402Z,20.30
2022-07-29T18:33:28.308Z,20.30
2022-07-29T18:36:07.651Z,20.20
2022-07-29T18:38:40.131Z,20.10
2022-07-29T18:41:07.543Z,20.00
2022-07-29T18:43:34.317Z,19.90
2022-07-29T18:46:01.067Z,19.80
2022-07-29T18:48:32.240Z,19.70
2022-07-29T18:50:59.460Z,19.60
2022-07-29T18:53:26.306Z,19.50
2022-07-29T18:55:58.615Z,19.40
2022-07-29T18:58:27.082Z,19.40
2022-07-29T19:00:54.452Z,19.30
2022-07-29T19:03:21.277Z,19.20
2022-07-29T19:05:48.131Z,19.20
2022-07-29T19:08:15.516Z,19.00
2022-07-29T19:10:42.289Z,19.00
2022-07-29T19:13:10.558Z,18.90
2022-07-29T19:15:41.073Z,18.70
2022-07-29T19:18:07.937Z,18.60
2022-07-29T19:20:34.702Z,18.50
2022-07-29T19:23:02.074Z,18.50
2022-07-29T19:25:28.867Z,18.40
2022-07-29T19:27:56.819Z,18.30
2022-07-29T19:30:25.577Z,18.30
2022-07-29T19:32:52.352Z,18.20
2022-07-29T19:35:19.109Z,18.10
2022-07-29T19:37:46.564Z,18.00
2022-07-29T19:40:13.410Z,18.00
2022-07-29T19:42:40.223Z,17.90
2022-07-29T19:45:08.563Z,17.90
2022-07-29T19:47:36.702Z,17.80
2022-07-29T19:50:04.243Z,17.80
2022-07-29T19:52:31.649Z,17.70
2022-07-29T19:54:58.490Z,17.70
2022-07-29T19:57:25.403Z,17.60
2022-07-29T19:59:53.987Z,17.50
2022-07-29T20:02:20.838Z,17.50
2022-07-29T20:04:49.660Z,17.40
2022-07-29T20:07:17.018Z,17.50
2022-07-29T20:09:43.802Z,17.50
2022-07-29T20:12:11.184Z,17.30
2022-07-29T20:14:38.612Z,17.20
2022-07-29T20:17:05.410Z,17.10
2022-07-29T20:19:32.370Z,17.00
2022-07-29T20:22:01.134Z,16.90
2022-07-29T20:24:28.144Z,16.90
2022-07-29T20:26:54.929Z,16.80
2022-07-29T20:29:22.450Z,16.80
2022-07-29T20:31:52.909Z,16.80
2022-07-29T20:34:24.079Z,16.70
2022-07-29T20:36:50.886Z,16.60
2022-07-29T20:39:19.299Z,16.60
2022-07-29T20:41:46.913Z,16.60
2022-07-29T20:44:13.772Z,16.60
2022-07-29T20:46:40.630Z,16.60
2022-07-29T20:49:08.395Z,16.50
2022-07-29T20:51:43.519Z,16.40
2022-07-29T20:54:11.498Z,16.30
2022-07-29T20:56:39.899Z,16.30
2022-07-29T20:59:06.797Z,16.20
2022-07-29T21:01:34.740Z,16.30
2022-07-29T21:04:02.254Z,16.10
2022-07-29T21:06:29.281Z,16.00
2022-07-29T21:08:56.774Z,16.00
2022-07-29T21:11:43.475Z,16.00
2022-07-29T21:14:12.422Z,16.00
2022-07-29T21:16:39.206Z,16.00
2022-07-29T21:19:05.971Z,15.90
2022-07-29T21:21:33.341Z,15.80
2022-07-29T21:24:00.155Z,15.70
2022-07-29T21:26:26.944Z,15.70
2022-07-29T21:28:55.320Z,15.70
2022-07-29T21:31:23.419Z,15.60
2022-07-29T21:33:50.316Z,15.50
2022-07-29T21:39:04.526Z,15.50
2022-07-29T21:41:32.285Z,15.50
2022-07-29T21:43:59.564Z,15.40
2022-07-29T21:46:29.515Z,15.50
2022-07-29T21:48:56.815Z,15.50
2022-07-29T21:51:23.586Z,15.40
2022-07-29T21:53:50.340Z,15.40
2022-07-29T21:56:20.455Z,15.40
2022-07-29T21:58:49.215Z,15.30
2022-07-29T22:01:16.083Z,15.30
2022-07-29T22:03:44.871Z,15.30
2022-07-29T22:06:18.168Z,15.30
2022-07-29T22:08:46.081Z,15.30
2022-07-29T22:11:12.987Z,15.30
2022-07-29T22:13:40.047Z,15.20
2022-07-29T22:16:07.900Z,15.20
2022-07-29T22:18:34.669Z,15.20
2022-07-29T22:21:02.787Z,15.20
2022-07-29T22:23:30.517Z,15.10
2022-07-29T22:25:57.317Z,15.00
2022-07-29T22:28:24.151Z,15.00
2022-07-29T22:30:51.697Z,15.00
2022-07-29T22:33:18.979Z,14.90
2022-07-29T22:35:48.542Z,14.90
2022-07-29T22:38:18.258Z,14.90
2022-07-29T22:40:45.379Z,14.80
2022-07-29T22:43:12.197Z,14.70
2022-07-29T22:45:39.685Z,14.70
2022-07-29T22:48:06.636Z,14.70
2022-07-29T22:50:33.767Z,14.70
2022-07-29T22:53:01.128Z,14.60
2022-07-29T22:55:29.295Z,14.60
2022-07-29T22:57:56.089Z,14.50
2022-07-29T23:00:23.561Z,14.40
2022-07-29T23:02:50.474Z,14.40
2022-07-29T23:05:17.387Z,14.30
2022-07-29T23:07:44.741Z,14.20
2022-07-29T23:10:11.534Z,14.20
2022-07-29T23:12:39.726Z,14.30
2022-07-29T23:15:07.550Z,14.20
2022-07-29T23:17:36.202Z,14.10
2022-07-29T23:20:05.631Z,14.10
2022-07-29T23:22:33.092Z,14.20
2022-07-29T23:24:59.942Z,14.20
2022-07-29T23:27:26.728Z,14.10
2022-07-29T23:29:55.451Z,14.10
2022-07-29T23:32:22.392Z,14.20
2022-07-29T23:34:49.151Z,14.20
2022-07-29T23:37:16.566Z,14.10
2022-07-29T23:39:43.338Z,14.00
2022-07-29T23:42:10.135Z,14.00
2022-07-29T23:44:37.518Z,14.00
2022-07-29T23:47:05.904Z,14.00
2022-07-29T23:49:32.664Z,14.00
2022-07-29T23:52:00.064Z,14.00
2022-07-29T23:54:26.840Z,14.10
2022-07-29T23:56:53.594Z,14.00
2022-07-29T23:59:20.974Z,14.10
